Latest Coastal Weather Observations for Redcliffe

IDQ60701

Issued at 7:21 am EST Thursday 18 December 2014 (issued every 10 minutes, with the page automatically refreshed every 10 minutes)

About coastal observations | Map of coastal stations | Coastal observations for QLD | Marine services | Other Formats
Station Details ID: 040958 Name: REDCLIFFE Lat: -27.22 Lon: 153.09 Height: 12.6 m
Data from the previous 72 hours. | See also: Recent months at Redcliffe
Date/Time
EST
Temp

°C
Wind Pressure Rain
since 9am
mm
Weather Cloud Vis
km
Sea
Height
m
Swell
Dir
 
Speed
knots
Gust
knots
hPa Trend Height
m
Period
s
Dir
18/07:00am 26.6 ENE 7 8 1011.4 - 1.8 - - - - - - -
18/06:30am 26.1 ENE 5 6 1011.0 - 1.8 - - - - - - -
18/06:00am 25.5 ENE 6 8 1010.8 - 1.8 - - - - - - -
18/05:30am 25.3 ENE 9 10 1010.4 - 1.8 - - - - - - -
18/05:00am 25.2 E 10 12 1009.9 - 1.8 - - - - - - -
18/04:30am 24.8 NNE 11 17 1009.4 - 1.8 - - - - - - -
18/04:00am 24.4 W 7 10 1008.3 - 1.8 - - - - - - -
18/03:30am 24.5 SW 11 16 1007.7 - 1.8 - - - - - - -
18/03:00am 25.1 SSW 13 19 1007.7 - 1.8 Recent precip. - - - - - -
18/02:30am 25.0 S 16 19 1007.8 - 1.8 - - - - - - -
18/02:00am 23.9 S 11 15 1009.4 - 1.4 - - - - - - -
18/01:30am 24.1 S 7 10 1009.3 - 1.0 - - - - - - -
18/01:00am 23.6 WSW 3 5 1009.2 - 0.8 - - - - - - -
18/12:00am 26.4 S 7 10 1008.3 - 0.0 - - - - - - -
 
Date/Time
EST
Temp

°C
Wind Pressure Rain
since 9am
mm
Weather Cloud Vis
km
Sea
Height
m
Swell
Dir
 
Speed
knots
Gust
knots
hPa Trend Height
m
Period
s
Dir
17/11:30pm 26.4 NNW 7 9 1007.1 - 0.0 - - - - - - -
17/11:00pm 26.3 NNW 11 15 1007.0 - 0.0 - - - - - - -
17/10:30pm 26.4 N 9 12 1007.1 - 0.0 - - - - - - -
17/10:00pm 26.9 N 9 11 1007.1 - 0.0 - - - - - - -
17/09:30pm 27.0 N 7 8 1007.0 - 0.0 - - - - - - -
17/09:00pm 27.0 N 8 11 1006.4 - 0.0 - - - - - - -
17/08:30pm 26.9 N 10 14 1006.1 - 0.0 - - - - - - -
17/08:00pm 26.7 N 9 11 1005.6 - 0.0 - - - - - - -
17/07:30pm 26.8 N 14 16 1005.6 - 0.0 - - - - - - -
17/07:00pm 27.0 N 15 17 1005.1 - 0.0 - - - - - - -
17/06:30pm 27.5 NNE 14 16 1004.3 - 0.0 - - - - - - -
17/06:00pm 28.1 NNE 14 16 1004.0 - 0.0 - - - - - - -
17/05:30pm 28.7 NE 13 15 1003.8 - 0.0 - - - - - - -
17/05:00pm 28.7 NE 15 16 1003.5 - 0.0 - - - - - - -
17/04:30pm 28.8 NNE 16 18 1003.5 - 0.0 - - - - - - -
17/04:00pm 29.4 NE 15 17 1003.2 - 0.0 - - - - - - -
17/03:30pm 29.0 NE 15 17 1003.3 - 0.0 - - - - - - -
17/03:00pm 30.2 NE 17 21 1003.4 - 0.0 - - - - - - -
17/02:30pm 31.2 NE 16 20 1003.8 - 0.0 - - - - - - -
17/02:00pm 33.3 NE 14 17 1004.0 - 0.0 - - - - - - -
17/01:30pm 33.3 NE 14 16 1004.1 - 0.0 - - - - - - -
17/01:00pm 33.0 NE 14 16 1004.6 - 0.0 - - - - - - -
17/12:30pm 32.1 NE 14 15 1004.9 - 0.0 - - - - - - -
17/12:00pm 30.8 NE 13 16 1005.3 - 0.0 - - - - - - -
17/11:30am 30.4 NE 11 14 1005.6 - 0.0 - - - - - - -
17/11:00am 31.7 NE 9 10 1006.0 - 0.0 - - - - - - -
17/10:30am 30.9 NE 9 10 1006.4 - 0.0 - - - - - - -
17/10:00am 30.6 NE 6 8 1006.5 - 0.0 - - - - - - -
17/09:30am 30.0 E 5 5 1006.7 - 0.0 - - - - - - -
17/09:00am 28.6 ESE 6 7 1007.0 - 0.0 - - - - - - -
17/08:30am 29.5 ESE 5 7 1007.1 - 0.0 - - - - - - -
17/08:00am 28.1 ESE 4 4 1007.0 - 0.0 - - - - - - -
17/07:30am 27.6 ESE 5 6 1007.0 - 0.0 - - - - - - -
17/07:00am 26.3 SE 5 6 1007.0 - 0.0 - - - - - - -
17/06:30am 25.9 SSW 4 6 1006.7 - 0.0 - - - - - - -
17/06:00am 24.3 SW 5 7 1006.6 - 0.0 - - - - - - -
17/05:30am 23.5 W 5 6 1006.2 - 0.0 - - - - - - -
17/05:00am 22.7 W 4 5 1005.7 - 0.0 - - - - - - -
17/04:30am 22.8 W 5 6 1005.5 - 0.0 - - - - - - -
17/04:00am 23.1 WNW 3 6 1005.2 - 0.0 - - - - - - -
17/03:30am 23.5 NNE 1 4 1004.8 - 0.0 - - - - - - -
17/03:00am 23.7 NE 6 9 1004.5 - 0.0 - - - - - - -
17/02:30am 23.3 SSE 5 5 1005.2 - 0.0 - - - - - - -
17/02:00am 23.3 SSW 3 5 1005.3 - 0.0 - - - - - - -
17/01:30am 23.1 WSW 4 5 1006.4 - 0.0 - - - - - - -
17/01:00am 23.2 SW 5 6 1006.5 - 0.0 - - - - - - -
17/12:30am 23.3 NW 3 5 1006.7 - 0.0 - - - - - - -
17/12:00am 23.5 S 1 4 1007.0 - 0.0 - - - - - - -
 
Date/Time
EST
Temp

°C
Wind Pressure Rain
since 9am
mm
Weather Cloud Vis
km
Sea
Height
m
Swell
Dir
 
Speed
knots
Gust
knots
hPa Trend Height
m
Period
s
Dir
16/11:30pm 23.5 SW 5 6 1007.5 - 0.0 - - - - - - -
16/11:00pm 24.0 NNW 4 7 1007.8 - 0.0 - - - - - - -
16/10:30pm 24.5 NW 7 11 1008.6 - 0.0 - - - - - - -
16/10:00pm 24.4 N 9 13 1007.2 - 0.0 - - - - - - -
16/09:30pm 24.5 N 13 17 1006.5 - 0.0 - - - - - - -
16/09:00pm 24.6 N 15 18 1006.2 - 0.0 - - - - - - -
16/08:30pm 24.6 N 16 19 1006.4 - 0.0 - - - - - - -
16/08:00pm 24.6 N 16 20 1006.5 - 0.0 - - - - - - -
16/07:30pm 24.6 N 18 20 1006.5 - 0.0 - - - - - - -
16/07:00pm 24.7 N 19 21 1006.3 - 0.0 - - - - - - -
16/06:30pm 24.8 NNE 17 19 1006.1 - 0.0 - - - - - - -
16/06:00pm 24.8 NNE 17 20 1006.0 - 0.0 - - - - - - -
16/05:30pm 25.0 NNE 17 20 1005.5 - 0.0 - - - - - - -
16/05:00pm 25.2 NNE 18 21 1005.1 - 0.0 - - - - - - -
16/04:30pm 26.0 NE 18 20 1005.0 - 0.0 - - - - - - -
16/04:00pm 26.6 NE 17 20 1005.4 - 0.0 - - - - - - -
16/03:30pm 26.7 NE 17 20 1005.5 - 0.0 - - - - - - -
16/03:00pm 26.0 NE 17 20 1005.8 - 0.0 - - - - - - -
16/02:30pm 26.7 NE 17 19 1006.3 - 0.0 - - - - - - -
16/02:00pm 26.3 NE 16 19 1007.2 - 0.0 - - - - - - -
16/01:30pm 26.6 NE 16 18 1007.4 - 0.0 - - - - - - -
16/01:00pm 25.8 NE 14 17 1007.8 - 0.0 - - - - - - -
16/12:30pm 25.3 NE 14 15 1008.0 - 0.0 - - - - - - -
16/12:00pm 25.8 NE 13 15 1008.4 - 0.0 - - - - - - -
16/11:30am 26.0 NE 11 13 1008.9 - 0.0 - - - - - - -
16/11:00am 26.8 ENE 10 12 1009.3 - 0.0 - - - - - - -
16/10:30am 26.2 ENE 9 10 1009.8 - 0.0 - - - - - - -
16/10:00am 25.4 ENE 8 9 1010.1 - 0.0 - - - - - - -
16/09:30am 25.7 NE 7 8 1010.7 - 0.0 - - - - - - -
16/09:00am 24.6 NE 8 9 1010.7 - 0.0 - - - - - - -
16/08:30am 25.4 E 4 5 1010.9 - 0.0 - - - - - - -
16/08:00am 25.3 SSE 6 7 1011.0 - 0.0 - - - - - - -
16/07:30am 23.9 SSE 6 7 1011.2 - 0.0 - - - - - - -
16/07:00am 23.1 SSE 5 6 1011.0 - 0.0 - - - - - - -
16/06:30am 21.5 WSW 4 6 1010.8 - 0.0 - - - - - - -
16/06:00am 20.4 WSW 5 7 1010.7 - 0.0 - - - - - - -
16/05:30am 19.4 WSW 6 7 1010.5 - 0.0 - - - - - - -
16/05:00am 19.2 SW 5 6 1010.1 - 0.0 - - - - - - -
16/04:30am 19.2 SW 5 6 1010.1 - 0.0 - - - - - - -
16/04:00am 19.2 SW 6 7 1010.0 - 0.0 - - - - - - -
16/03:30am 19.6 SW 6 7 1010.1 - 0.0 - - - - - - -
16/03:00am 19.8 SW 7 8 1010.2 - 0.0 - - - - - - -
16/02:30am 20.0 WSW 6 7 1010.0 - 0.0 - - - - - - -
16/02:00am 20.4 SE 5 6 1009.9 - 0.0 - - - - - - -
16/01:30am 21.2 SE 6 7 1010.0 - 0.0 - - - - - - -
16/01:00am 22.1 SE 7 8 1010.1 - 0.0 - - - - - - -
16/12:30am 22.1 SE 7 9 1010.6 - 0.0 - - - - - - -
16/12:00am 22.2 SSE 8 9 1011.0 - 0.0 - - - - - - -
 
Date/Time
EST
Temp

°C
Wind Pressure Rain
since 9am
mm
Weather Cloud Vis
km
Sea
Height
m
Swell
Dir
 
Speed
knots
Gust
knots
hPa Trend Height
m
Period
s
Dir
15/11:30pm 22.4 SE 8 11 1011.0 - 0.0 - - - - - - -
15/11:00pm 22.7 ESE 8 10 1011.3 - 0.0 - - - - - - -
15/10:30pm 22.9 ESE 8 10 1011.7 - 0.0 - - - - - - -
15/10:00pm 22.9 SE 9 10 1011.9 - 0.0 - - - - - - -
15/09:30pm 23.1 SE 10 13 1011.8 - 0.0 - - - - - - -
15/09:00pm 23.2 SE 10 14 1011.4 - 0.0 - - - - - - -
15/08:30pm 23.3 ESE 11 13 1011.0 - 0.0 - - - - - - -
15/08:00pm 23.4 ESE 11 15 1011.1 - 0.0 - - - - - - -
15/07:30pm 23.5 ESE 13 15 1010.8 - 0.0 - - - - - - -
15/07:00pm 23.6 ESE 14 16 1010.7 - 0.0 - - - - - - -
15/06:30pm 23.8 ESE 13 16 1010.4 - 0.0 - - - - - - -
15/06:00pm 24.2 ESE 13 15 1010.3 - 0.0 - - - - - - -
15/05:30pm 24.5 ESE 14 17 1009.7 - 0.0 - - - - - - -
15/05:00pm 24.6 ESE 15 18 1009.4 - 0.0 - - - - - - -
15/04:30pm 25.0 E 15 17 1009.0 - 0.0 - - - - - - -
15/04:00pm 25.5 ESE 13 14 1008.9 - 0.0 - - - - - - -
15/03:30pm 25.9 E 14 16 1008.9 - 0.0 - - - - - - -
15/03:00pm 25.7 E 14 17 1009.0 - 0.0 - - - - - - -
15/02:30pm 25.9 ESE 15 17 1009.0 - 0.0 - - - - - - -
15/02:00pm 26.4 E 13 16 1009.2 - 0.0 - - - - - - -
15/01:30pm 26.3 E 12 14 1009.3 - 0.0 - - - - - - -
15/01:00pm 26.3 ESE 12 14 1009.6 - 0.0 - - - - - - -
15/12:30pm 25.5 ESE 10 13 1009.6 - 0.0 - - - - - - -
15/12:00pm 25.4 ESE 10 13 1009.9 - 0.0 - - - - - - -
15/11:30am 25.5 ESE 8 9 1010.2 - 0.0 - - - - - - -
15/11:00am 25.7 E 8 9 1010.4 - 0.0 - - - - - - -
15/10:30am 25.2 ESE 6 8 1010.9 - 0.0 - - - - - - -
15/10:00am 26.2 SE 6 8 1011.1 - 0.0 - - - - - - -
15/09:30am 25.6 S 7 9 1011.4 - 0.0 - - - - - - -
15/09:00am 25.6 S 9 11 1011.5 - 0.0 - - - - - - -
15/08:30am 25.0 S 11 15 1011.3 - 0.0 - - - - - - -
15/08:00am 24.2 S 9 12 1011.2 - 0.0 - - - - - - -
15/07:30am 23.3 SSW 8 11 1011.1 - 0.0 - - - - - - -

Other Formats:

Comma delimited format used in spreadsheet applications
http://www.bom.gov.au/fwo/IDQ60701/IDQ60701.95591.axf

JavaScript Object Notation format (JSON) in row-major order
http://www.bom.gov.au/fwo/IDQ60701/IDQ60701.95591.json